createdAt,value
2022-12-05T00:03:59.907Z,16.74
2022-12-05T00:09:04.829Z,16.71
2022-12-05T00:14:10.347Z,16.70
2022-12-05T00:19:15.716Z,16.69
2022-12-05T00:24:19.231Z,16.67
2022-12-05T00:29:22.833Z,16.66
2022-12-05T00:34:26.373Z,16.64
2022-12-05T00:39:30.699Z,16.64
2022-12-05T00:44:34.133Z,16.65
2022-12-05T00:49:37.467Z,16.66
2022-12-05T00:54:40.801Z,16.63
2022-12-05T00:59:44.283Z,16.58
2022-12-05T01:04:47.646Z,16.55
2022-12-05T01:09:51.049Z,16.50
2022-12-05T01:14:54.784Z,16.51
2022-12-05T01:19:58.164Z,16.49
2022-12-05T01:25:01.593Z,16.49
2022-12-05T01:30:05.634Z,16.48
2022-12-05T01:35:09.332Z,16.45
2022-12-05T01:40:12.913Z,16.42
2022-12-05T01:45:23.074Z,16.40
2022-12-05T01:50:26.471Z,16.37
2022-12-05T01:55:31.037Z,16.34
2022-12-05T02:00:34.526Z,16.33
2022-12-05T02:05:38.877Z,16.33
2022-12-05T02:10:50.760Z,16.30
2022-12-05T02:16:05.669Z,16.26
2022-12-05T02:21:24.786Z,16.19
2022-12-05T02:26:33.992Z,16.14
2022-12-05T02:32:41.726Z,16.01
2022-12-05T02:38:25.303Z,16.01
2022-12-05T02:44:05.685Z,15.94
2022-12-05T02:49:13.450Z,15.89
2022-12-05T02:54:43.198Z,15.89
2022-12-05T02:59:46.597Z,15.92
2022-12-05T03:04:50.014Z,15.95
2022-12-05T03:09:58.916Z,15.93
2022-12-05T03:15:26.179Z,15.90
2022-12-05T03:20:38.761Z,15.89
2022-12-05T03:26:00.558Z,15.84
2022-12-05T03:31:11.627Z,15.83
2022-12-05T03:36:28.577Z,15.83
2022-12-05T03:42:01.791Z,15.84
2022-12-05T03:47:20.689Z,15.86
2022-12-05T03:53:19.481Z,15.84
2022-12-05T03:58:30.873Z,15.83
2022-12-05T04:03:41.955Z,15.84
2022-12-05T04:08:53.993Z,15.84
2022-12-05T04:14:05.736Z,15.86
2022-12-05T04:19:09.331Z,15.86
2022-12-05T04:24:19.858Z,15.87
2022-12-05T04:29:32.157Z,15.86
2022-12-05T04:34:38.811Z,15.84
2022-12-05T04:39:51.415Z,15.85
2022-12-05T04:45:10.482Z,15.84
2022-12-05T04:50:16.707Z,15.80
2022-12-05T04:55:23.541Z,15.83
2022-12-05T05:00:30.486Z,15.85
2022-12-05T05:05:36.277Z,15.89
2022-12-05T05:10:52.636Z,15.91
2022-12-05T05:15:56.046Z,16.00
2022-12-05T05:20:59.915Z,16.07
2022-12-05T05:26:09.021Z,16.16
2022-12-05T05:31:13.932Z,16.25
2022-12-05T05:36:18.494Z,16.35
2022-12-05T05:41:25.063Z,16.47
2022-12-05T05:46:31.709Z,16.61
2022-12-05T05:51:35.061Z,16.74
2022-12-05T05:56:40.455Z,16.93
2022-12-05T06:01:43.799Z,17.21
2022-12-05T06:06:47.377Z,17.29
2022-12-05T06:11:50.732Z,17.34
2022-12-05T06:16:54.340Z,17.38
2022-12-05T06:21:57.999Z,17.43
2022-12-05T06:27:01.398Z,17.54
2022-12-05T06:32:05.238Z,17.60
2022-12-05T06:37:08.675Z,17.65
2022-12-05T06:42:12.066Z,17.72
2022-12-05T06:47:15.509Z,17.69
2022-12-05T06:52:18.734Z,17.71
2022-12-05T06:57:22.052Z,17.62
2022-12-05T07:02:25.412Z,17.65
2022-12-05T07:07:30.070Z,17.72
2022-12-05T07:12:34.553Z,17.75
2022-12-05T07:17:39.101Z,17.62
2022-12-05T07:22:42.309Z,17.71
2022-12-05T07:27:45.326Z,17.87
2022-12-05T07:32:48.225Z,17.96
2022-12-05T07:37:51.104Z,18.01
2022-12-05T07:42:54.206Z,18.10
2022-12-05T07:47:58.151Z,18.23
2022-12-05T07:53:01.578Z,18.34
2022-12-05T07:58:04.870Z,18.40
2022-12-05T08:03:08.042Z,18.49
2022-12-05T08:08:11.511Z,18.48
2022-12-05T08:13:14.924Z,18.46
2022-12-05T08:18:20.072Z,18.53
2022-12-05T08:23:25.262Z,18.56
2022-12-05T08:28:29.329Z,18.68
2022-12-05T08:33:32.826Z,18.81
2022-12-05T08:38:36.696Z,18.94
2022-12-05T08:43:40.746Z,19.06
2022-12-05T08:48:43.983Z,19.09
2022-12-05T08:53:47.480Z,19.18
2022-12-05T08:58:50.946Z,19.18
2022-12-05T09:03:54.544Z,19.23
2022-12-05T09:09:00.490Z,19.32
2022-12-05T09:14:04.628Z,19.36
2022-12-05T09:19:15.682Z,19.37
2022-12-05T09:24:19.113Z,19.34
2022-12-05T09:29:22.605Z,19.40
2022-12-05T09:34:25.890Z,19.45
2022-12-05T09:39:29.175Z,19.50
2022-12-05T09:44:47.578Z,19.52
2022-12-05T09:50:02.261Z,19.59
2022-12-05T09:55:13.416Z,19.64
2022-12-05T10:00:17.507Z,19.71
2022-12-05T10:05:47.993Z,19.77
2022-12-05T10:11:05.473Z,19.81
2022-12-05T10:16:17.730Z,19.83
2022-12-05T10:21:52.586Z,19.86
2022-12-05T10:27:02.807Z,19.82
2022-12-05T10:32:16.000Z,19.77
2022-12-05T10:37:24.005Z,19.73
2022-12-05T10:42:32.052Z,19.72
2022-12-05T10:47:36.447Z,19.72
2022-12-05T10:52:39.827Z,19.66
2022-12-05T10:57:43.246Z,19.63
2022-12-05T11:02:51.421Z,19.60
2022-12-05T11:07:56.944Z,19.57
2022-12-05T11:13:02.140Z,19.55
2022-12-05T11:18:20.068Z,19.53
2022-12-05T11:23:27.603Z,19.48
2022-12-05T11:28:37.791Z,19.45
2022-12-05T11:33:41.439Z,19.44
2022-12-05T11:38:45.019Z,19.37
2022-12-05T11:44:19.340Z,19.36
2022-12-05T11:50:03.457Z,19.29
2022-12-05T11:55:42.702Z,19.29
2022-12-05T12:01:08.343Z,19.28
2022-12-05T12:06:17.335Z,19.24
2022-12-05T12:11:29.772Z,19.18
2022-12-05T12:16:54.493Z,19.20
2022-12-05T12:22:20.678Z,19.18
2022-12-05T12:28:07.904Z,19.18
2022-12-05T12:33:31.780Z,19.17
2022-12-05T12:38:35.293Z,19.13
2022-12-05T12:44:10.736Z,19.10
2022-12-05T12:49:49.509Z,19.06
2022-12-05T12:55:11.407Z,19.02
2022-12-05T13:00:31.702Z,18.97
2022-12-05T13:05:54.270Z,18.89
2022-12-05T13:10:59.244Z,18.90
2022-12-05T13:16:06.583Z,18.89
2022-12-05T13:21:10.674Z,18.79
2022-12-05T13:26:14.835Z,18.65
2022-12-05T13:31:18.925Z,18.50
2022-12-05T13:36:23.108Z,18.41
2022-12-05T13:41:43.082Z,18.30
2022-12-05T13:46:50.846Z,18.29
2022-12-05T13:51:54.423Z,18.29
2022-12-05T13:57:02.768Z,18.28
2022-12-05T14:02:44.772Z,18.26
2022-12-05T14:07:55.039Z,18.19
2022-12-05T14:13:23.622Z,18.11
2022-12-05T14:18:50.485Z,17.99
2022-12-05T14:24:13.410Z,17.87
2022-12-05T14:29:53.968Z,17.75
2022-12-05T14:35:15.612Z,17.64
2022-12-05T14:40:26.954Z,17.53
2022-12-05T14:45:38.536Z,17.45
2022-12-05T14:50:45.211Z,17.37
2022-12-05T14:56:00.632Z,17.28
2022-12-05T15:01:09.173Z,17.22
2022-12-05T15:06:16.168Z,17.14
2022-12-05T15:11:23.698Z,17.08
2022-12-05T15:16:30.492Z,17.05
2022-12-05T15:21:42.684Z,17.04
2022-12-05T15:26:54.656Z,17.02
2022-12-05T15:32:21.753Z,17.03
2022-12-05T15:37:33.763Z,17.01
2022-12-05T15:42:43.160Z,17.05
2022-12-05T15:47:48.476Z,17.09
2022-12-05T15:53:29.422Z,17.06
2022-12-05T15:58:42.471Z,17.03
2022-12-05T16:03:57.822Z,16.97
2022-12-05T16:09:11.555Z,16.91
2022-12-05T16:14:31.105Z,16.82
2022-12-05T16:19:39.328Z,16.83
2022-12-05T16:24:59.612Z,16.80
2022-12-05T16:30:19.482Z,16.74
2022-12-05T16:35:35.009Z,16.70
2022-12-05T16:40:50.525Z,16.66
2022-12-05T16:45:56.996Z,16.62
2022-12-05T16:51:22.897Z,16.61
2022-12-05T16:56:27.680Z,16.56
2022-12-05T17:01:35.646Z,16.53
2022-12-05T17:06:42.140Z,16.48
2022-12-05T17:11:48.984Z,16.46
2022-12-05T17:16:53.188Z,16.41
2022-12-05T17:21:56.615Z,16.39
2022-12-05T17:27:00.176Z,16.37
2022-12-05T17:32:04.350Z,16.36
2022-12-05T17:37:08.518Z,16.33
2022-12-05T17:42:12.019Z,16.33
2022-12-05T17:47:18.175Z,16.32
2022-12-05T17:52:28.681Z,16.31
2022-12-05T17:57:35.119Z,16.32
2022-12-05T18:02:40.066Z,16.33
2022-12-05T18:07:45.515Z,16.35
2022-12-05T18:12:50.557Z,16.37
2022-12-05T18:17:53.955Z,16.37
2022-12-05T18:22:58.174Z,16.40
2022-12-05T18:28:01.960Z,16.45
2022-12-05T18:33:06.998Z,16.48
2022-12-05T18:38:11.413Z,16.50
2022-12-05T18:43:16.440Z,16.49
2022-12-05T18:53:45.126Z,16.55
2022-12-05T18:59:01.144Z,16.56
2022-12-05T19:04:06.348Z,16.57
2022-12-05T19:09:13.531Z,16.55
2022-12-05T19:14:19.734Z,16.50
2022-12-05T19:19:24.366Z,16.51
2022-12-05T19:24:28.823Z,16.51
2022-12-05T19:29:32.172Z,16.48
2022-12-05T19:34:35.526Z,16.49
2022-12-05T19:39:38.904Z,16.46
2022-12-05T19:44:42.198Z,16.37
2022-12-05T19:49:45.598Z,16.32
2022-12-05T19:54:48.887Z,16.30
2022-12-05T19:59:52.232Z,16.26
2022-12-05T20:04:55.644Z,16.18
2022-12-05T20:10:00.203Z,16.15
2022-12-05T20:15:06.954Z,16.12
2022-12-05T20:20:11.132Z,16.10
2022-12-05T20:25:16.127Z,16.09
2022-12-05T20:30:20.981Z,16.06
2022-12-05T20:35:24.676Z,16.03
2022-12-05T20:40:28.016Z,15.98
2022-12-05T20:45:31.376Z,15.96
2022-12-05T20:50:34.944Z,15.94
2022-12-05T20:55:38.282Z,15.90
2022-12-05T21:00:42.823Z,15.87
2022-12-05T21:05:46.548Z,15.84
2022-12-05T21:10:51.994Z,15.82
2022-12-05T21:15:55.513Z,15.79
2022-12-05T21:21:01.071Z,15.80
2022-12-05T21:26:07.588Z,15.77
2022-12-05T21:31:16.709Z,15.75
2022-12-05T21:36:22.087Z,15.73
2022-12-05T21:41:26.668Z,15.70
2022-12-05T21:46:30.417Z,15.65
2022-12-05T21:51:33.909Z,15.62
2022-12-05T21:56:37.631Z,15.65
2022-12-05T22:01:41.116Z,15.67
2022-12-05T22:06:44.833Z,15.62
2022-12-05T22:11:48.294Z,15.64
2022-12-05T22:16:51.706Z,15.62
2022-12-05T22:21:54.995Z,15.62
2022-12-05T22:26:58.581Z,15.66
2022-12-05T22:32:01.971Z,15.69
2022-12-05T22:37:05.400Z,15.74
2022-12-05T22:42:09.632Z,15.76
2022-12-05T22:47:13.280Z,15.80
2022-12-05T22:52:17.326Z,15.84
2022-12-05T22:57:20.608Z,15.89
2022-12-05T23:02:24.187Z,15.92
2022-12-05T23:07:27.803Z,15.94
2022-12-05T23:12:31.398Z,15.99
2022-12-05T23:17:35.311Z,15.99
2022-12-05T23:22:38.766Z,15.95
2022-12-05T23:27:42.198Z,15.89
2022-12-05T23:32:45.786Z,15.42
2022-12-05T23:37:49.271Z,14.78
2022-12-05T23:42:53.099Z,14.44
2022-12-05T23:47:58.457Z,14.15
2022-12-05T23:53:05.225Z,14.00
2022-12-05T23:58:08.910Z,14.01
